Flight Track Log - Related Links

Times and Time Zones

All times are in EST time to prevent confusion due to time zone crossing. See the EJM826 flight status page for this flight to view local times or setup timezone preferences in your user account.


Time Position Orientation Groundspeed Altitude Reporting Facility
EST Latitude Longitude Course Direction KTS MPH feet Rate Location/Type
Sun 01:14:51 PM 29.9578 -95.3464 27° Northeast 167 192 1,000  Level Houston Center
Sun 01:15:52 PM 29.9667 -95.3744 290° West 150 173 3,500 2,000 Climbing Houston Center
Sun 01:16:18 PM 29.9803 -95.3678 23° Northeast 168 193 3,900 2,032 Climbing Houston Center
Sun 01:16:54 PM 30.0167 -95.3467 27° Northeast 216 249 5,600 1,905 Climbing Houston Center
Sun 01:17:21 PM 30.0306 -95.3364 33° Northeast 198 228 5,900 2,494 Climbing Houston Center
Sun 01:18:23 PM 30.1111 -95.2908 26° Northeast 264 304 9,300 2,952 Climbing Houston Center
Sun 01:19:25 PM 30.1867 -95.2639 17° North 281 323 12,000 2,371 Climbing Houston Center
Sun 01:20:00 PM 30.8146 -94.8551 27° Northeast  Level Estimated
Sun 01:20:27 PM 30.2642 -95.2339 18° North 290 334 14,200  Level Houston Center
Sun 01:21:29 PM 30.3461 -95.2017 19° North 307 353 16,400 2,129 Climbing Houston Center
Sun 01:22:31 PM 30.4425 -95.1633 19° North 323 372 18,600 1,984 Climbing Houston Center
Sun 01:23:33 PM 30.5267 -95.1119 28° Northeast 340 391 20,500 1,887 Climbing Houston Center
Sun 01:24:35 PM 30.6136 -95.0575 28° Northeast 352 405 22,500 2,081 Climbing Houston Center
Sun 01:25:37 PM 30.7022 -95.0031 28° Northeast 359 413 24,800 1,935 Climbing Houston Center
Sun 01:26:39 PM 30.7939 -94.9467 28° Northeast 369 425 26,500 1,680 Climbing Houston Center
Sun 01:27:42 PM 30.9061 -94.8769 28° Northeast 381 438 28,300 1,488 Climbing Houston Center
Sun 01:28:44 PM 31.0039 -94.8153 28° Northeast 396 456 29,600 1,016 Climbing Houston Center
Sun 01:29:46 PM 31.1047 -94.7525 28° Northeast 410 472 30,400 919 Climbing Houston Center
Sun 01:30:48 PM 31.2067 -94.6867 29° Northeast 429 494 31,500 1,258 Climbing Houston Center
Sun 01:31:50 PM 31.3322 -94.5992 31° Northeast 445 512 33,000 726 Climbing Houston Center
Sun 01:32:52 PM 31.4408 -94.5239 31° Northeast 452 520 33,000  Level Houston Center
Sun 01:33:54 PM 31.5567 -94.4436 31° Northeast 476 548 33,000  Level Houston Center
Sun 01:34:56 PM 31.6742 -94.3611 31° Northeast 490 564 33,000  Level Houston Center
Sun 01:35:59 PM 31.7994 -94.2900 26° Northeast 504 580 33,000  Level Houston Center
Sun 01:36:47 PM 31.9025 -94.2406 22° Northeast 495 570 33,000 55 Level Fort Worth Center
Sun 01:37:49 PM 32.0575 -94.1639 23° Northeast 500 575 33,100 726 Climbing Fort Worth Center
Sun 01:38:51 PM 32.1833 -94.1017 23° Northeast 493 567 34,500 1,355 Climbing Fort Worth Center
Sun 01:39:53 PM 32.3078 -94.0392 23° Northeast 472 543 35,900 1,355 Climbing Fort Worth Center
Sun 01:40:55 PM 32.4222 -93.9814 23° Northeast 452 520 37,300 1,355 Climbing Fort Worth Center
Sun 01:41:57 PM 32.5344 -93.9253 23° Northeast 440 506 38,700 1,355 Climbing Fort Worth Center
Sun 01:42:59 PM 32.6431 -93.8708 23° Northeast 426 490 40,100 1,104 Climbing Fort Worth Center
Sun 01:44:02 PM 32.7481 -93.8181 23° Northeast 412 474 41,000 432 Climbing Fort Worth Center
Sun 01:45:04 PM 32.8794 -93.7517 23° Northeast 429 494 41,000  Level Fort Worth Center
Sun 01:46:06 PM 32.9975 -93.6914 23° Northeast 451 519 41,000  Level Fort Worth Center
Sun 01:47:08 PM 33.1119 -93.6331 23° Northeast 464 534 41,000  Level Fort Worth Center
Sun 01:48:10 PM 33.2325 -93.5722 23° Northeast 472 543 41,000  Level Fort Worth Center
Sun 01:49:12 PM 33.3533 -93.5111 23° Northeast 479 551 41,000  Level Fort Worth Center
Sun 01:50:14 PM 33.4975 -93.4367 23° Northeast 475 547 41,000  Level Fort Worth Center
Sun 01:51:16 PM 33.6181 -93.3750 23° Northeast 474 545 41,000  Level Fort Worth Center
Sun 01:52:18 PM 33.7400 -93.3119 23° Northeast 478 550 41,000  Level Fort Worth Center
Sun 01:53:20 PM 33.8622 -93.2489 23° Northeast 478 550 41,000  Level Fort Worth Center
Sun 01:54:22 PM 33.9839 -93.1858 23° Northeast 478 550 41,000  Level Fort Worth Center
Sun 01:55:24 PM 34.1308 -93.1086 24° Northeast 480 552 41,000  Level Fort Worth Center
Sun 01:56:26 PM 34.2519 -93.0458 23° Northeast 474 545 41,000  Level Fort Worth Center
Sun 01:57:29 PM 34.3836 -92.9794 23° Northeast 479 551 41,000  Level Fort Worth Center
Sun 01:58:31 PM 34.5050 -92.9161 23° Northeast 476 548 41,000  Level Fort Worth Center
Sun 01:59:33 PM 34.6256 -92.8525 23° Northeast 474 545 41,000  Level Fort Worth Center
Sun 02:00:35 PM 34.7458 -92.7886 24° Northeast 474 545 41,000  Level Fort Worth Center
Sun 02:01:37 PM 34.8664 -92.7264 23° Northeast 472 543 41,000  Level Fort Worth Center
Sun 02:02:52 PM 35.0294 -92.6378 24° Northeast 471 542 41,000  Level Kansas City Center
Sun 02:03:52 PM 35.1481 -92.5739 24° Northeast 471 542 41,000  Level Kansas City Center
Sun 02:04:56 PM 35.2644 -92.5119 23° Northeast 465 535 41,000  Level Kansas City Center
Sun 02:05:57 PM 35.3803 -92.4500 24° Northeast 461 531 41,000  Level Kansas City Center
Sun 02:07:13 PM 35.5456 -92.3617 23° Northeast 462 532 41,000  Level Memphis Center
Sun 02:08:15 PM 35.6619 -92.2989 24° Northeast 461 531 41,000  Level Memphis Center
Sun 02:09:17 PM 35.7772 -92.2347 24° Northeast 458 527 41,000  Level Memphis Center
Sun 02:10:19 PM 35.8942 -92.1719 24° Northeast 459 528 41,000  Level Memphis Center
Sun 02:11:21 PM 36.0111 -92.1086 24° Northeast 460 529 41,000  Level Memphis Center
Sun 02:12:23 PM 36.1378 -92.0383 24° Northeast 455 524 41,000  Level Memphis Center
Sun 02:13:25 PM 36.2656 -91.9675 24° Northeast 457 526 41,000  Level Memphis Center
Sun 02:14:27 PM 36.3822 -91.9014 25° Northeast 462 532 41,000  Level Memphis Center
Sun 02:15:29 PM 36.5033 -91.8372 23° Northeast 465 535 41,000  Level Memphis Center
Sun 02:16:31 PM 36.6219 -91.7717 24° Northeast 465 535 41,000  Level Memphis Center
Sun 02:17:20 PM 36.7183 -91.7144 25° Northeast 466 536 41,000  Level Kansas City Center
Sun 02:18:22 PM 36.8364 -91.6481 24° Northeast 465 535 41,000  Level Kansas City Center
Sun 02:19:25 PM 36.9519 -91.5881 23° Northeast 454 522 41,000  Level Kansas City Center
Sun 02:20:26 PM 37.0922 -91.5078 25° Northeast 458 527 41,000  Level Kansas City Center
Sun 02:21:27 PM 37.2111 -91.4386 25° Northeast 464 534 41,000  Level Kansas City Center
Sun 02:22:30 PM 37.3278 -91.3742 24° Northeast 460 529 41,000  Level Kansas City Center
Sun 02:23:34 PM 37.4436 -91.3081 24° Northeast 458 527 41,000  Level Kansas City Center
Sun 02:24:34 PM 37.5603 -91.2419 24° Northeast 458 527 41,000  Level Kansas City Center
Sun 02:25:36 PM 37.6761 -91.1756 24° Northeast 458 527 41,000  Level Kansas City Center
Sun 02:26:39 PM 37.8161 -91.0950 24° Northeast 459 528 41,000  Level Kansas City Center
Sun 02:27:41 PM 37.9133 -91.0394 24° Northeast 458 527 41,000  Level Kansas City Center
Sun 02:28:44 PM 38.0539 -90.9586 24° Northeast 461 531 41,000  Level Kansas City Center
Sun 02:29:46 PM 38.1703 -90.8908 25° Northeast 459 528 41,000  Level Kansas City Center
Sun 02:30:47 PM 38.2872 -90.8233 24° Northeast 460 529 41,000  Level Kansas City Center
Sun 02:31:48 PM 38.4044 -90.7542 25° Northeast 462 532 41,000  Level Kansas City Center
Sun 02:32:52 PM 38.5406 -90.6731 25° Northeast 461 531 41,000  Level Kansas City Center
Sun 02:33:53 PM 38.6581 -90.6047 24° Northeast 462 532 41,000  Level Kansas City Center
Sun 02:34:54 PM 38.7764 -90.5353 25° Northeast 464 534 41,000  Level Kansas City Center
Sun 02:35:57 PM 38.8908 -90.4603 27° Northeast 462 532 41,000  Level Kansas City Center
Sun 02:36:58 PM 39.0122 -90.3603 33° Northeast 469 540 41,000 -242 Level Kansas City Center
Sun 02:38:01 PM 39.1236 -90.2692 32° Northeast 473 544 40,500 -1,548 Descending Kansas City Center
Sun 02:39:02 PM 39.2342 -90.1786 32° Northeast 471 542 37,800 -2,516 Descending Kansas City Center
Sun 02:40:05 PM 39.3433 -90.0892 32° Northeast 466 536 35,300 -2,256 Descending Kansas City Center
Sun 02:41:07 PM 39.4456 -90.0044 33° Northeast 443 510 33,100 -1,104 Descending Kansas City Center
Sun 02:42:10 PM 39.5475 -89.9194 33° Northeast 437 503 33,000 -48 Descending Kansas City Center
Sun 02:43:11 PM 39.6522 -89.8333 32° Northeast 443 510 33,000 -885 Level Kansas City Center
Sun 02:44:12 PM 39.7744 -89.7300 33° Northeast 443 510 31,200 -1,902 Descending Kansas City Center
Sun 02:45:14 PM 39.8711 -89.6489 33° Northeast 424 488 29,100 -1,073 Descending Kansas City Center
Sun 02:46:15 PM 39.9675 -89.5572 36° Northeast 425 489 29,000 -48 Descending Kansas City Center
Sun 02:47:20 PM 40.0689 -89.4608 36° Northeast 442 509 29,000 -104 Level Kansas City Center
Sun 02:48:10 PM 40.1722 -89.3622 36° Northeast 464 534 28,800 -1,286 Descending Chicago Center
Sun 02:49:12 PM 40.2736 -89.2647 36° Northeast 457 526 26,600 -2,081 Descending Chicago Center
Sun 02:50:14 PM 40.3739 -89.1686 36° Northeast 451 519 24,500 -2,081 Descending Chicago Center
Sun 02:51:16 PM 40.4714 -89.0742 36° Northeast 441 507 22,300 -1,790 Descending Chicago Center
Sun 02:52:18 PM 40.5678 -88.9817 36° Northeast 433 498 20,800 -2,323 Descending Chicago Center
Sun 02:53:20 PM 40.6839 -88.8694 36° Northeast 432 497 17,500 -2,758 Descending Chicago Center
Sun 02:54:22 PM 40.7675 -88.7875 37° Northeast 402 463 15,100 -1,824 Descending Chicago Center
Sun 02:55:25 PM 40.8472 -88.7189 33° Northeast 346 398 13,700 -1,258 Descending Chicago Center
Sun 02:56:26 PM 40.9258 -88.6731 24° Northeast 314 361 12,500 -1,317 Descending Chicago Center
Sun 02:57:28 PM 41.0233 -88.6178 23° Northeast 315 362 11,000 -1,161 Descending Chicago Center
Sun 02:58:30 PM 41.1014 -88.5736 23° Northeast 309 356 10,100 -435 Descending Chicago Center
Sun 02:59:32 PM 41.1744 -88.5322 23° Northeast 293 337 10,100 -435 Level Chicago Center
Sun 03:00:34 PM 41.2472 -88.4903 23° Northeast 284 327 9,200 -1,258 Descending Chicago Center
Sun 03:01:36 PM 41.3247 -88.4456 23° Northeast 295 339 7,500 -1,500 Descending Chicago Center
Sun 03:02:38 PM 41.4011 -88.4014 23° Northeast 298 343 6,100 -1,171 Descending Chicago Center
Sun 03:03:39 PM 41.4433 -88.3222 55° Northeast 293 337 5,100 -537 Descending Chicago Center
Sun 03:04:41 PM 41.4550 -88.1936 83° East 291 335 5,000 -48 Descending Chicago Center
Sun 03:05:43 PM 41.4656 -88.0856 83° East 289 333 5,000 -48 Level Chicago Center
Sun 03:06:45 PM 41.4778 -87.9744 82° East 290 334 4,900  Descending Chicago Center
Sun 03:07:47 PM 41.4819 -87.8636 87° East 294 338 5,000 -194 Climbing Chicago Center
Sun 03:08:49 PM 41.4811 -87.7547 91° East 294 338 4,500 -683 Descending Chicago Center
Sun 03:09:50 PM 41.4806 -87.6464 90° East 294 338 3,600 -732 Descending Chicago Center
Sun 03:10:52 PM 41.4867 -87.5442 85° East 285 328 3,000 -242 Descending Chicago Center
Sun 03:11:54 PM 41.5158 -87.4544 67° East 273 314 3,100  Climbing Chicago Center
Sun 03:12:56 PM 41.5556 -87.3850 53° Northeast 246 283 3,000 -878 Descending Chicago Center
Sun 03:13:57 PM 41.5975 -87.3761 North 180 207 1,300 -1,672 Descending Chicago Center
Sun 03:15:00 PM 41.6000 -87.4000 90° East  Level FlightAware Approximate
Sun 03:22:00 PM 41.6163 -87.4128 90° East  Level Estimated

Login

Don't have an account? Register now (free) for customized features, flight alerts, and more!